createdAt,value
2018-11-04T00:02:10.292Z,20.87
2018-11-04T00:04:39.214Z,21.83
2018-11-04T00:07:08.034Z,22.00
2018-11-04T00:09:37.706Z,19.10
2018-11-04T00:12:07.161Z,21.37
2018-11-04T00:14:37.218Z,23.20
2018-11-04T00:17:06.318Z,20.63
2018-11-04T00:19:36.377Z,21.87
2018-11-04T00:22:05.771Z,22.13
2018-11-04T00:24:35.372Z,19.53
2018-11-04T00:27:05.039Z,18.17
2018-11-04T00:29:34.477Z,20.17
2018-11-04T00:32:03.497Z,18.23
2018-11-04T00:34:33.160Z,18.63
2018-11-04T00:37:02.190Z,20.53
2018-11-04T00:39:31.705Z,18.20
2018-11-04T00:42:01.776Z,19.13
2018-11-04T00:44:30.575Z,19.87
2018-11-04T00:46:59.375Z,18.37
2018-11-04T00:49:28.932Z,17.20
2018-11-04T00:51:58.714Z,17.23
2018-11-04T00:54:28.294Z,19.40
2018-11-04T00:56:57.497Z,17.63
2018-11-04T00:59:27.367Z,17.47
2018-11-04T01:01:56.432Z,19.83
2018-11-04T01:04:25.281Z,21.40
2018-11-04T01:06:54.492Z,19.97
2018-11-04T01:09:23.359Z,17.50
2018-11-04T01:11:52.496Z,16.70
2018-11-04T01:14:21.393Z,16.13
2018-11-04T01:16:50.893Z,16.30
2018-11-04T01:19:20.062Z,17.80
2018-11-04T01:21:49.126Z,13.50
2018-11-04T01:24:18.911Z,16.70
2018-11-04T01:26:47.701Z,17.17
2018-11-04T01:29:16.886Z,15.93
2018-11-04T01:31:45.713Z,16.73
2018-11-04T01:34:14.938Z,15.80
2018-11-04T01:36:44.632Z,15.83
2018-11-04T01:39:13.570Z,15.47
2018-11-04T01:41:42.425Z,15.50
2018-11-04T01:44:11.818Z,15.47
2018-11-04T01:46:41.899Z,17.53
2018-11-04T01:49:10.717Z,17.90
2018-11-04T01:51:40.616Z,17.63
2018-11-04T01:54:09.492Z,17.47
2018-11-04T01:56:38.681Z,16.63
2018-11-04T01:59:07.547Z,15.57
2018-11-04T02:01:36.376Z,18.63
2018-11-04T02:04:05.779Z,17.23
2018-11-04T02:06:35.284Z,16.93
2018-11-04T02:09:05.885Z,17.83
2018-11-04T02:11:35.253Z,16.83
2018-11-04T02:14:04.088Z,19.33
2018-11-04T02:16:33.305Z,17.00
2018-11-04T02:19:02.173Z,16.80
2018-11-04T02:21:32.114Z,17.87
2018-11-04T02:24:00.976Z,19.83
2018-11-04T02:26:36.483Z,21.50
2018-11-04T02:29:05.879Z,20.83
2018-11-04T02:31:34.733Z,19.20
2018-11-04T02:34:04.355Z,19.40
2018-11-04T02:36:33.209Z,18.27
2018-11-04T02:39:02.305Z,21.07
2018-11-04T02:41:32.042Z,22.23
2018-11-04T02:44:00.869Z,22.60
2018-11-04T02:46:29.746Z,22.20
2018-11-04T02:49:00.204Z,18.00
2018-11-04T02:51:29.616Z,19.47
2018-11-04T02:53:59.328Z,18.47
2018-11-04T02:56:28.156Z,21.50
2018-11-04T02:58:56.988Z,18.53
2018-11-04T03:01:26.907Z,16.00
2018-11-04T03:03:55.943Z,16.83
2018-11-04T03:06:26.348Z,18.33
2018-11-04T03:08:55.192Z,17.47
2018-11-04T03:11:24.486Z,15.63
2018-11-04T03:13:54.384Z,15.13
2018-11-04T03:16:23.215Z,14.70
2018-11-04T03:18:52.463Z,14.50
2018-11-04T03:21:22.824Z,13.57
2018-11-04T03:23:51.694Z,15.20
2018-11-04T03:26:20.581Z,12.70
2018-11-04T03:28:51.290Z,12.70
2018-11-04T03:31:20.615Z,12.57
2018-11-04T03:33:49.660Z,12.73
2018-11-04T03:36:19.339Z,12.53
2018-11-04T03:38:49.710Z,12.00
2018-11-04T03:41:18.547Z,13.43
2018-11-04T03:43:49.481Z,14.50
2018-11-04T03:46:19.476Z,12.80
2018-11-04T03:48:48.335Z,14.97
2018-11-04T03:51:17.433Z,13.10
2018-11-04T03:53:46.764Z,12.83
2018-11-04T03:56:15.840Z,14.17
2018-11-04T03:58:45.617Z,12.57
2018-11-04T04:01:15.268Z,14.00
2018-11-04T04:03:45.011Z,13.03
2018-11-04T04:06:13.844Z,12.87
2018-11-04T04:08:43.392Z,14.43
2018-11-04T04:11:12.933Z,11.43
2018-11-04T04:13:41.782Z,13.57
2018-11-04T04:16:10.920Z,14.30
2018-11-04T04:18:39.836Z,14.07
2018-11-04T04:21:10.372Z,14.83
2018-11-04T04:23:41.231Z,12.47
2018-11-04T04:26:11.196Z,12.93
2018-11-04T04:28:40.486Z,14.23
2018-11-04T04:31:09.394Z,13.03
2018-11-04T04:33:38.947Z,11.80
2018-11-04T04:36:08.048Z,10.80
2018-11-04T04:38:36.850Z,11.03
2018-11-04T04:41:06.450Z,14.27
2018-11-04T04:43:35.297Z,12.63
2018-11-04T04:46:04.172Z,12.83
2018-11-04T04:48:33.017Z,12.53
2018-11-04T04:51:02.218Z,12.40
2018-11-04T04:53:31.597Z,14.23
2018-11-04T04:56:01.070Z,11.20
2018-11-04T04:58:30.925Z,13.13
2018-11-04T05:00:59.756Z,13.87
2018-11-04T05:03:28.621Z,11.73
2018-11-04T05:05:57.497Z,12.13
2018-11-04T05:08:27.899Z,12.17
2018-11-04T05:10:57.442Z,13.63
2018-11-04T05:13:27.455Z,13.53
2018-11-04T05:15:56.720Z,13.47
2018-11-04T05:18:26.189Z,12.73
2018-11-04T05:20:55.060Z,11.90
2018-11-04T05:23:24.697Z,12.67
2018-11-04T05:25:54.139Z,12.67
2018-11-04T05:28:23.206Z,12.67
2018-11-04T05:30:52.043Z,13.03
2018-11-04T05:33:21.085Z,13.03
2018-11-04T05:35:50.283Z,14.10
2018-11-04T05:38:19.458Z,13.07
2018-11-04T05:40:48.271Z,12.77
2018-11-04T05:43:19.426Z,14.50
2018-11-04T05:45:48.239Z,13.87
2018-11-04T05:48:18.224Z,15.13
2018-11-04T05:50:47.345Z,15.03
2018-11-04T05:53:17.255Z,16.23
2018-11-04T05:55:47.401Z,15.00
2018-11-04T05:58:17.069Z,14.00
2018-11-04T06:00:46.083Z,16.07
2018-11-04T06:03:15.132Z,13.93
2018-11-04T06:05:43.941Z,15.73
2018-11-04T06:08:13.101Z,15.70
2018-11-04T06:10:41.885Z,15.77
2018-11-04T06:13:10.639Z,14.47
2018-11-04T06:15:39.414Z,15.93
2018-11-04T06:18:08.202Z,15.53
2018-11-04T06:20:37.312Z,15.23
2018-11-04T06:23:06.416Z,17.87
2018-11-04T06:25:35.988Z,12.70
2018-11-04T06:28:04.960Z,15.33
2018-11-04T06:30:34.128Z,14.80
2018-11-04T06:33:03.595Z,15.53
2018-11-04T06:35:32.899Z,15.93
2018-11-04T06:38:01.769Z,17.93
2018-11-04T06:40:30.681Z,15.47
2018-11-04T06:42:59.921Z,14.37
2018-11-04T06:45:29.026Z,13.33
2018-11-04T06:47:58.550Z,14.10
2018-11-04T06:50:27.784Z,13.77
2018-11-04T06:52:56.644Z,14.60
2018-11-04T06:55:26.660Z,12.83
2018-11-04T06:57:55.505Z,14.50
2018-11-04T07:00:24.373Z,15.53
2018-11-04T07:02:53.208Z,13.67
2018-11-04T07:05:22.181Z,15.30
2018-11-04T07:07:51.095Z,15.80
2018-11-04T07:10:20.600Z,14.17
2018-11-04T07:12:49.444Z,16.27
2018-11-04T07:15:18.270Z,14.37
2018-11-04T07:17:47.951Z,15.87
2018-11-04T07:20:17.063Z,14.27
2018-11-04T07:22:47.488Z,15.87
2018-11-04T07:25:16.364Z,13.57
2018-11-04T07:27:50.283Z,14.60
2018-11-04T07:30:20.002Z,13.50
2018-11-04T07:32:52.770Z,14.63
2018-11-04T07:35:30.320Z,13.30
2018-11-04T07:38:00.404Z,13.63
2018-11-04T07:40:29.495Z,13.30
2018-11-04T07:42:58.696Z,14.00
2018-11-04T07:45:27.996Z,13.57
2018-11-04T07:47:57.412Z,13.10
2018-11-04T07:50:26.314Z,13.37
2018-11-04T07:52:56.028Z,13.53
2018-11-04T07:55:25.245Z,13.00
2018-11-04T07:57:54.434Z,13.33
2018-11-04T08:00:25.041Z,15.10
2018-11-04T08:02:54.212Z,13.90
2018-11-04T08:05:23.658Z,12.80
2018-11-04T08:07:53.124Z,14.17
2018-11-04T08:10:21.973Z,13.70
2018-11-04T08:12:50.779Z,12.40
2018-11-04T08:15:23.513Z,14.90
2018-11-04T08:17:53.312Z,12.07
2018-11-04T08:20:22.134Z,12.27
2018-11-04T08:22:51.193Z,12.03
2018-11-04T08:25:20.385Z,11.43
2018-11-04T08:27:50.763Z,13.40
2018-11-04T08:30:19.562Z,12.73
2018-11-04T08:32:48.750Z,14.37
2018-11-04T08:35:18.614Z,13.80
2018-11-04T08:37:47.493Z,15.40
2018-11-04T08:40:17.386Z,14.33
2018-11-04T08:42:47.655Z,12.60
2018-11-04T08:45:17.516Z,13.40
2018-11-04T08:47:46.580Z,13.13
2018-11-04T08:50:16.166Z,13.50
2018-11-04T08:52:45.064Z,14.33
2018-11-04T08:55:14.382Z,14.80
2018-11-04T08:57:43.320Z,12.30
2018-11-04T09:00:13.796Z,14.57
2018-11-04T09:02:44.610Z,14.77
2018-11-04T09:05:13.716Z,13.20
2018-11-04T09:07:43.153Z,13.53
2018-11-04T09:10:14.464Z,15.03
2018-11-04T09:12:43.960Z,14.97
2018-11-04T09:15:13.272Z,13.53
2018-11-04T09:17:43.837Z,15.60
2018-11-04T09:20:14.396Z,14.83
2018-11-04T09:22:45.301Z,14.70
2018-11-04T09:25:14.358Z,13.83
2018-11-04T09:27:43.431Z,15.37
2018-11-04T09:30:14.393Z,14.83
2018-11-04T09:32:45.932Z,15.47
2018-11-04T09:35:15.110Z,15.10
2018-11-04T09:37:43.874Z,14.40
2018-11-04T09:40:13.383Z,14.60
2018-11-04T09:42:42.487Z,12.90
2018-11-04T09:45:11.633Z,15.50
2018-11-04T09:47:40.521Z,15.83
2018-11-04T09:50:10.787Z,14.93
2018-11-04T09:52:39.876Z,14.00
2018-11-04T09:55:10.193Z,15.47
2018-11-04T09:57:39.033Z,15.13
2018-11-04T10:00:10.310Z,14.73
2018-11-04T10:02:39.413Z,14.63
2018-11-04T10:05:09.112Z,13.67
2018-11-04T10:07:38.671Z,13.97
2018-11-04T10:10:10.112Z,14.07
2018-11-04T10:12:39.464Z,15.70
2018-11-04T10:15:08.805Z,14.47
2018-11-04T10:17:37.954Z,14.43
2018-11-04T10:20:08.213Z,14.27
2018-11-04T10:22:37.735Z,15.10
2018-11-04T10:25:07.670Z,14.43
2018-11-04T10:27:36.687Z,14.73
2018-11-04T10:30:07.793Z,14.37
2018-11-04T10:32:37.696Z,14.43
2018-11-04T10:35:07.176Z,13.57
2018-11-04T10:37:36.254Z,13.67
2018-11-04T10:40:06.402Z,14.70
2018-11-04T10:42:36.419Z,15.07
2018-11-04T10:45:07.122Z,14.30
2018-11-04T10:47:36.755Z,14.40
2018-11-04T10:50:07.804Z,14.97
2018-11-04T10:52:37.752Z,15.07
2018-11-04T10:55:07.093Z,14.50
2018-11-04T10:57:37.717Z,13.73
2018-11-04T11:00:13.059Z,13.60
2018-11-04T11:02:42.474Z,15.03
2018-11-04T11:05:11.314Z,13.70
2018-11-04T11:07:42.034Z,16.17
2018-11-04T11:10:11.662Z,15.07
2018-11-04T11:12:41.371Z,14.97
2018-11-04T11:15:11.267Z,14.43
2018-11-04T11:17:40.710Z,14.47
2018-11-04T11:20:10.646Z,15.57
2018-11-04T11:22:41.168Z,16.87
2018-11-04T11:25:10.958Z,13.40
2018-11-04T11:27:42.093Z,15.50
2018-11-04T11:30:11.028Z,15.90
2018-11-04T11:32:41.090Z,14.83
2018-11-04T11:35:10.005Z,14.60
2018-11-04T11:37:39.270Z,16.60
2018-11-04T11:40:08.839Z,15.03
2018-11-04T11:42:38.099Z,15.23
2018-11-04T11:45:08.146Z,15.37
2018-11-04T11:47:37.730Z,15.10
2018-11-04T11:50:07.554Z,16.93
2018-11-04T11:52:36.925Z,15.17
2018-11-04T11:55:06.294Z,15.93
2018-11-04T11:57:35.384Z,15.50
2018-11-04T12:00:07.327Z,17.45
2018-11-04T12:02:36.911Z,16.23
2018-11-04T12:05:07.452Z,15.13
2018-11-04T12:07:36.480Z,13.80
2018-11-04T12:10:08.015Z,14.37
2018-11-04T12:12:37.796Z,14.17
2018-11-04T12:15:12.332Z,14.67
2018-11-04T12:17:43.482Z,15.00
2018-11-04T12:20:17.925Z,15.57
2018-11-04T12:22:47.116Z,15.53
2018-11-04T12:25:16.421Z,15.07
2018-11-04T12:27:45.358Z,16.03
2018-11-04T12:30:16.985Z,18.90
2018-11-04T12:32:45.857Z,15.17
2018-11-04T12:35:15.297Z,15.10
2018-11-04T12:37:45.661Z,15.13
2018-11-04T12:40:16.199Z,16.40
2018-11-04T12:42:45.764Z,15.37
2018-11-04T12:45:14.848Z,15.63
2018-11-04T12:47:43.733Z,17.13
2018-11-04T12:50:13.306Z,16.63
2018-11-04T12:52:42.540Z,17.07
2018-11-04T12:55:11.484Z,15.75
2018-11-04T12:57:40.391Z,16.67
2018-11-04T13:00:12.751Z,14.93
2018-11-04T13:02:42.167Z,18.17
2018-11-04T13:05:11.588Z,17.43
2018-11-04T13:07:41.181Z,17.60
2018-11-04T13:10:11.761Z,16.77
2018-11-04T13:12:45.970Z,16.10
2018-11-04T13:15:16.028Z,17.30
2018-11-04T13:17:45.534Z,17.67
2018-11-04T13:20:15.487Z,16.23
2018-11-04T13:22:45.196Z,18.40
2018-11-04T13:25:14.060Z,15.15
2018-11-04T13:27:43.456Z,16.83
2018-11-04T13:30:14.189Z,16.30
2018-11-04T13:32:44.469Z,16.57
2018-11-04T13:35:17.354Z,17.83
2018-11-04T13:37:46.214Z,18.53
2018-11-04T13:40:17.357Z,15.60
2018-11-04T13:42:48.067Z,15.73
2018-11-04T13:45:23.989Z,16.27
2018-11-04T13:47:56.217Z,17.47
2018-11-04T13:50:28.006Z,15.80
2018-11-04T13:52:56.878Z,16.00
2018-11-04T13:55:25.946Z,16.33
2018-11-04T13:58:01.352Z,16.90
2018-11-04T14:00:31.102Z,17.23
2018-11-04T14:03:00.116Z,17.73
2018-11-04T14:05:29.922Z,16.27
2018-11-04T14:07:59.023Z,15.80
2018-11-04T14:10:30.120Z,17.03
2018-11-04T14:12:59.834Z,17.37
2018-11-04T14:15:33.048Z,15.27
2018-11-04T14:18:01.936Z,16.40
2018-11-04T14:20:31.472Z,16.80
2018-11-04T14:23:00.253Z,17.17
2018-11-04T14:25:31.794Z,15.27
2018-11-04T14:28:05.197Z,16.57
2018-11-04T14:30:34.568Z,15.87
2018-11-04T14:33:06.455Z,17.83
2018-11-04T14:35:36.044Z,17.17
2018-11-04T14:38:04.896Z,16.53
2018-11-04T14:40:34.100Z,16.90
2018-11-04T14:43:06.917Z,16.40
2018-11-04T14:45:37.333Z,18.40
2018-11-04T14:48:10.043Z,18.50
2018-11-04T14:50:41.096Z,16.80
2018-11-04T14:53:10.040Z,20.23
2018-11-04T14:55:40.595Z,19.10
2018-11-04T14:58:09.459Z,19.07
2018-11-04T15:00:38.366Z,18.37
2018-11-04T15:03:08.121Z,18.20
2018-11-04T15:05:38.010Z,19.13
2018-11-04T15:08:07.945Z,21.47
2018-11-04T15:10:37.252Z,21.23
2018-11-04T15:13:06.327Z,20.47
2018-11-04T15:15:35.928Z,20.10
2018-11-04T15:18:04.775Z,20.17
2018-11-04T15:20:33.896Z,20.50
2018-11-04T15:23:03.604Z,20.57
2018-11-04T15:25:32.664Z,21.13
2018-11-04T15:28:01.599Z,21.93
2018-11-04T15:30:30.445Z,20.03
2018-11-04T15:33:00.606Z,21.80
2018-11-04T15:35:29.875Z,19.43
2018-11-04T15:37:59.046Z,22.20
2018-11-04T15:40:28.262Z,20.97
2018-11-04T15:42:57.139Z,23.37
2018-11-04T15:45:26.409Z,24.10
2018-11-04T15:47:55.276Z,23.50
2018-11-04T15:50:24.098Z,25.23
2018-11-04T15:52:53.140Z,21.47
2018-11-04T15:55:22.030Z,23.67
2018-11-04T15:57:52.837Z,23.67
2018-11-04T16:00:22.592Z,26.40
2018-11-04T16:02:52.360Z,27.47
2018-11-04T16:05:21.646Z,27.07
2018-11-04T16:07:50.319Z,26.50
2018-11-04T16:10:19.659Z,28.20
2018-11-04T16:12:48.949Z,29.30
2018-11-04T16:15:18.047Z,27.10
2018-11-04T16:17:46.874Z,30.33
2018-11-04T16:20:16.466Z,28.63
2018-11-04T16:22:47.562Z,32.73
2018-11-04T16:25:16.483Z,28.57
2018-11-04T16:27:45.999Z,31.57
2018-11-04T16:30:15.607Z,30.97
2018-11-04T16:32:44.717Z,30.13
2018-11-04T16:35:15.464Z,31.00
2018-11-04T16:37:45.005Z,30.57
2018-11-04T16:40:13.755Z,33.60
2018-11-04T16:42:43.137Z,31.97
2018-11-04T16:45:14.955Z,30.80
2018-11-04T16:47:44.616Z,31.77
2018-11-04T16:50:14.151Z,32.27
2018-11-04T16:52:43.824Z,37.83
2018-11-04T16:55:13.793Z,35.77
2018-11-04T16:57:43.830Z,39.87
2018-11-04T17:00:12.866Z,38.13
2018-11-04T17:02:41.761Z,38.07
2018-11-04T17:05:11.621Z,36.40
2018-11-04T17:07:40.751Z,37.67
2018-11-04T17:10:10.470Z,37.17
2018-11-04T17:12:39.496Z,35.10
2018-11-04T17:15:09.900Z,32.73
2018-11-04T17:17:39.020Z,35.20
2018-11-04T17:20:10.781Z,36.90
2018-11-04T17:22:39.813Z,31.00
2018-11-04T17:25:08.922Z,34.60
2018-11-04T17:27:37.846Z,34.20
2018-11-04T17:30:10.312Z,37.43
2018-11-04T17:32:39.148Z,35.57
2018-11-04T17:35:09.097Z,34.60
2018-11-04T17:37:38.759Z,32.87
2018-11-04T17:40:09.953Z,34.37
2018-11-04T17:42:39.507Z,33.33
2018-11-04T17:45:11.090Z,33.83
2018-11-04T17:47:39.933Z,36.03
2018-11-04T17:50:11.765Z,38.20
2018-11-04T17:52:41.721Z,36.60
2018-11-04T17:55:10.978Z,38.23
2018-11-04T17:57:41.083Z,37.87
2018-11-04T18:00:10.734Z,39.47
2018-11-04T18:02:40.234Z,38.00
2018-11-04T18:05:09.741Z,37.00
2018-11-04T18:07:38.740Z,35.77
2018-11-04T18:10:09.082Z,36.07
2018-11-04T18:12:38.185Z,38.70
2018-11-04T18:15:07.558Z,37.73
2018-11-04T18:17:37.263Z,37.63
2018-11-04T18:20:08.111Z,40.67
2018-11-04T18:22:37.058Z,36.17
2018-11-04T18:25:08.508Z,36.30
2018-11-04T18:27:38.250Z,35.50
2018-11-04T18:30:16.577Z,37.37
2018-11-04T18:32:49.350Z,33.40
2018-11-04T18:35:20.006Z,37.13
2018-11-04T18:37:50.309Z,35.13
2018-11-04T18:40:20.123Z,37.73
2018-11-04T18:42:49.953Z,38.57
2018-11-04T18:45:19.093Z,37.40
2018-11-04T18:47:48.993Z,40.00
2018-11-04T18:50:19.784Z,40.20
2018-11-04T18:52:51.226Z,37.23
2018-11-04T18:55:20.474Z,38.23
2018-11-04T18:57:51.050Z,38.10
2018-11-04T19:00:21.273Z,36.03
2018-11-04T19:02:50.253Z,35.33
2018-11-04T19:05:19.730Z,33.83
2018-11-04T19:07:49.137Z,32.93
2018-11-04T19:10:19.178Z,35.00
2018-11-04T19:12:48.254Z,33.13
2018-11-04T19:15:21.109Z,33.80
2018-11-04T19:17:53.211Z,32.90
2018-11-04T19:20:26.900Z,33.03
2018-11-04T19:22:56.198Z,36.63
2018-11-04T19:25:26.347Z,37.03
2018-11-04T19:27:56.509Z,37.37
2018-11-04T19:30:29.858Z,39.70
2018-11-04T19:33:05.439Z,40.37
2018-11-04T19:35:36.781Z,38.73
2018-11-04T19:38:06.746Z,39.43
2018-11-04T19:40:36.336Z,41.30
2018-11-04T19:43:05.386Z,42.40
2018-11-04T19:45:35.305Z,38.60
2018-11-04T19:48:09.300Z,40.93
2018-11-04T19:50:39.080Z,40.30
2018-11-04T19:53:08.263Z,40.57
2018-11-04T19:55:40.348Z,44.13
2018-11-04T19:58:15.317Z,42.40
2018-11-04T20:00:51.917Z,42.57
2018-11-04T20:03:22.680Z,38.17
2018-11-04T20:05:54.016Z,41.43
2018-11-04T20:08:23.225Z,43.23
2018-11-04T20:10:53.096Z,41.83
2018-11-04T20:13:27.413Z,40.03
2018-11-04T20:15:57.152Z,43.17
2018-11-04T20:18:31.409Z,40.97
2018-11-04T20:21:00.389Z,43.13
2018-11-04T20:23:29.776Z,43.27
2018-11-04T20:25:59.972Z,47.03
2018-11-04T20:28:29.190Z,46.20
2018-11-04T20:30:59.644Z,47.03
2018-11-04T20:33:29.874Z,45.80
2018-11-04T20:35:58.798Z,47.50
2018-11-04T20:38:33.515Z,44.27
2018-11-04T20:41:09.335Z,43.40
2018-11-04T20:43:38.141Z,46.33
2018-11-04T20:46:07.846Z,46.13
2018-11-04T20:48:42.085Z,41.70
2018-11-04T20:51:10.877Z,44.37
2018-11-04T20:53:39.729Z,45.93
2018-11-04T20:56:14.058Z,46.83
2018-11-04T20:58:43.900Z,44.90
2018-11-04T21:01:12.946Z,47.33
2018-11-04T21:03:42.373Z,47.40
2018-11-04T21:06:11.836Z,43.00
2018-11-04T21:08:40.737Z,51.47
2018-11-04T21:11:09.495Z,45.37
2018-11-04T21:13:38.268Z,45.50
2018-11-04T21:16:07.886Z,43.43
2018-11-04T21:18:37.179Z,45.87
2018-11-04T21:21:06.701Z,44.50
2018-11-04T21:23:36.786Z,42.80
2018-11-04T21:26:05.757Z,43.33
2018-11-04T21:28:35.747Z,45.20
2018-11-04T21:31:04.490Z,43.60
2018-11-04T21:33:33.288Z,42.67
2018-11-04T21:36:02.238Z,42.80
2018-11-04T21:38:31.819Z,41.50
2018-11-04T21:41:00.882Z,40.17
2018-11-04T21:43:30.775Z,41.43
2018-11-04T21:45:59.287Z,40.63
2018-11-04T21:48:28.114Z,41.97
2018-11-04T21:50:57.163Z,43.97
2018-11-04T21:53:26.798Z,38.37
2018-11-04T21:55:55.679Z,42.73
2018-11-04T21:58:24.688Z,42.47
2018-11-04T22:00:53.528Z,42.40
2018-11-04T22:03:23.129Z,46.77
2018-11-04T22:05:52.309Z,40.73
2018-11-04T22:08:21.452Z,44.17
2018-11-04T22:10:50.341Z,46.33
2018-11-04T22:13:20.534Z,47.37
2018-11-04T22:15:50.076Z,48.43
2018-11-04T22:18:19.161Z,48.27
2018-11-04T22:20:48.608Z,48.47
2018-11-04T22:23:18.409Z,52.40
2018-11-04T22:25:48.348Z,48.77
2018-11-04T22:28:18.519Z,50.37
2018-11-04T22:30:47.340Z,50.70
2018-11-04T22:33:16.165Z,51.67
2018-11-04T22:35:46.650Z,47.80
2018-11-04T22:38:15.497Z,47.60
2018-11-04T22:40:44.333Z,48.37
2018-11-04T22:43:13.215Z,48.73
2018-11-04T22:45:42.060Z,45.57
2018-11-04T22:48:10.894Z,46.80
2018-11-04T22:50:40.680Z,50.40
2018-11-04T22:53:09.512Z,46.13
2018-11-04T22:55:38.350Z,49.30
2018-11-04T22:58:08.828Z,47.57
2018-11-04T23:00:43.830Z,44.43
2018-11-04T23:03:13.583Z,46.53
2018-11-04T23:05:43.677Z,48.40
2018-11-04T23:08:13.610Z,49.43
2018-11-04T23:10:42.468Z,47.63
2018-11-04T23:13:11.646Z,47.07
2018-11-04T23:15:40.691Z,45.63
2018-11-04T23:18:09.529Z,45.33
2018-11-04T23:20:39.249Z,47.17
2018-11-04T23:23:08.532Z,44.10
2018-11-04T23:25:37.668Z,48.67
2018-11-04T23:28:06.878Z,46.83
2018-11-04T23:30:36.058Z,48.70
2018-11-04T23:33:04.924Z,47.43
2018-11-04T23:35:34.564Z,48.67
2018-11-04T23:38:03.986Z,45.27
2018-11-04T23:40:33.445Z,44.80
2018-11-04T23:43:02.366Z,48.87
2018-11-04T23:45:32.492Z,45.63
2018-11-04T23:48:01.333Z,42.40
2018-11-04T23:50:30.482Z,45.30
2018-11-04T23:52:59.332Z,42.40
2018-11-04T23:55:28.378Z,43.60
2018-11-04T23:57:59.605Z,41.30
